Terminal Aerodrome Forecast
Issued by NWS

Home | Current Version | Previous Version | Text Only | Print | Product List | Glossary On
Versions: 1 2 3 4 5 6 7 8 9 10 11 12 13 14 15 16 17 18 19 20 21
000
FTUS44 KLIX 282341
TAFHUM
TAF
KHUM 282341Z 2900/2924 14009KT P6SM SCT025
     FM290400 14007KT P6SM BKN015
     FM290900 14007KT 4SM BR BKN015
     FM291400 14009KT P6SM SCT020 BKN060
     FM291700 15014KT P6SM SCT110=

USA.gov is the U.S. government's official web portal to all federal, state and local government web resources and services.